Time;durP1;ratioP1;P1;durP2;ratioP2;P2;SDS_P1;SDS_P2;PMS_P1;PMS_P2;Temp;Humidity;BMP_temperature;BMP_pressure;BME280_temperature;BME280_humidity;BME280_pressure;Samples;Min_cycle;Max_cycle;Signal;HPM_P1;HPM_P2
2023/04/13 00:02:19;;;;;;;0.88;0.20;;;19.70;1.00;;;;;;5054224;28;20044;-34
2023/04/13 00:04:49;;;;;;;0.43;0.20;;;19.70;1.00;;;;;;5054434;28;20045;-35
2023/04/13 00:07:17;;;;;;;1.58;0.50;;;19.70;1.00;;;;;;5054710;28;20049;-35
2023/04/13 00:09:46;;;;;;;3.33;0.73;;;19.70;1.00;;;;;;5054631;28;20566;-35
2023/04/13 00:12:15;;;;;;;0.35;0.17;;;19.60;1.00;;;;;;5054279;28;20095;-35
2023/04/13 00:14:42;;;;;;;1.15;0.20;;;19.60;1.00;;;;;;5054412;28;20464;-35
2023/04/13 00:17:09;;;;;;;0.98;0.30;;;19.60;1.00;;;;;;5054378;28;20132;-35
2023/04/13 00:19:36;;;;;;;0.77;0.38;;;19.50;1.00;;;;;;5054538;28;20076;-35
2023/04/13 00:22:03;;;;;;;1.65;1.00;;;19.60;1.00;;;;;;5054479;28;20049;-35
2023/04/13 00:24:30;;;;;;;1.40;0.40;;;19.50;1.00;;;;;;5053667;28;20053;-35
2023/04/13 00:26:57;;;;;;;2.80;0.40;;;19.50;1.00;;;;;;5054204;28;20115;-35
2023/04/13 00:29:23;;;;;;;1.33;0.60;;;19.50;1.00;;;;;;5054500;28;20041;-35
2023/04/13 00:31:50;;;;;;;1.65;0.47;;;19.40;1.00;;;;;;5036335;28;20051;-35
2023/04/13 00:34:17;;;;;;;0.63;0.30;;;19.40;1.00;;;;;;5052809;28;20045;-35
2023/04/13 00:36:44;;;;;;;0.75;0.30;;;19.40;1.00;;;;;;5036177;28;20107;-35
2023/04/13 00:39:12;;;;;;;1.10;0.20;;;19.40;1.00;;;;;;5054097;28;20045;-35
2023/04/13 00:41:39;;;;;;;3.85;0.63;;;19.40;1.00;;;;;;5054075;28;20033;-35
2023/04/13 00:44:07;;;;;;;0.85;0.20;;;19.40;1.00;;;;;;5035422;28;20045;-35
2023/04/13 00:46:34;;;;;;;1.65;0.20;;;19.40;1.00;;;;;;5036045;28;20131;-35
2023/04/13 00:49:02;;;;;;;0.93;0.43;;;19.30;1.00;;;;;;5053965;28;20037;-35
2023/04/13 00:51:29;;;;;;;1.05;0.57;;;19.30;1.00;;;;;;5035945;28;20056;-35
2023/04/13 00:53:57;;;;;;;2.97;0.40;;;19.30;1.00;;;;;;5053157;28;20381;-35
2023/04/13 00:56:26;;;;;;;0.93;0.20;;;19.30;1.00;;;;;;5053691;28;20128;-35
2023/04/13 00:58:55;;;;;;;0.90;0.20;;;19.30;1.00;;;;;;5053886;28;20037;-35
2023/04/13 01:01:22;;;;;;;3.42;0.35;;;19.20;1.00;;;;;;5053852;28;20131;-35
2023/04/13 01:03:52;;;;;;;0.52;0.20;;;19.20;1.00;;;;;;5053013;28;20465;-35
2023/04/13 01:06:27;;;;;;;1.52;0.40;;;19.20;1.00;;;;;;5035673;28;20049;-35
2023/04/13 01:09:10;;;;;;;0.30;0.10;;;19.20;1.00;;;;;;5035783;28;20114;-35
2023/04/13 01:11:45;;;;;;;0.73;0.30;;;19.20;1.00;;;;;;5053611;28;20033;-35
2023/04/13 01:14:17;;;;;;;0.93;0.30;;;19.20;1.00;;;;;;5035024;28;20068;-35
2023/04/13 01:16:57;;;;;;;2.25;0.47;;;19.20;1.00;;;;;;5035149;28;20485;-35
2023/04/13 01:19:51;;;;;;;0.38;0.17;;;19.20;1.00;;;;;;5035587;28;20075;-34
2023/04/13 01:22:21;;;;;;;2.47;0.30;;;19.10;1.00;;;;;;5035077;28;20055;-34
2023/04/13 01:25:17;;;;;;;4.05;0.47;;;19.10;1.00;;;;;;5034814;28;20567;-34
2023/04/13 01:27:50;;;;;;;3.17;0.35;;;19.10;1.00;;;;;;5053309;28;20076;-34
2023/04/13 01:30:23;;;;;;;0.52;0.08;;;19.10;1.00;;;;;;5053208;28;20048;-34
2023/04/13 01:32:54;;;;;;;0.65;0.38;;;19.10;1.00;;;;;;5034567;28;20065;-34
2023/04/13 01:35:24;;;;;;;0.60;0.30;;;19.10;1.00;;;;;;5034944;28;20073;-35
2023/04/13 01:37:52;;;;;;;0.70;0.13;;;19.00;1.00;;;;;;5035125;28;20045;-34
2023/04/13 01:40:29;;;;;;;1.55;0.30;;;19.00;1.00;;;;;;5035138;28;20045;-34
2023/04/13 01:42:57;;;;;;;2.72;0.20;;;19.00;1.00;;;;;;5034324;28;20154;-34
2023/04/13 01:45:44;;;;;;;1.70;0.20;;;19.00;1.00;;;;;;5034977;28;20045;-34
2023/04/13 01:48:28;;;;;;;2.92;0.43;;;19.00;1.00;;;;;;5035016;28;20048;-34
2023/04/13 01:51:18;;;;;;;0.88;0.20;;;19.00;1.00;;;;;;5034869;28;20051;-34
2023/04/13 01:53:55;;;;;;;1.92;0.35;;;19.00;1.00;;;;;;5034101;28;20041;-34
2023/04/13 01:56:25;;;;;;;1.67;1.05;;;18.90;1.00;;;;;;5034650;28;20064;-34
2023/04/13 01:58:57;;;;;;;1.52;0.20;;;18.90;1.00;;;;;;5034789;28;20052;-35
2023/04/13 02:01:25;;;;;;;2.20;0.30;;;18.90;1.00;;;;;;5034645;28;20049;-35
2023/04/13 02:03:52;;;;;;;1.55;0.35;;;18.90;1.00;;;;;;5033911;28;20047;-35
2023/04/13 02:06:19;;;;;;;1.58;0.50;;;18.90;1.00;;;;;;5052465;28;20068;-35
2023/04/13 02:08:47;;;;;;;2.20;0.55;;;18.90;1.00;;;;;;5034406;28;20048;-35
2023/04/13 02:11:17;;;;;;;2.63;0.40;;;18.90;1.00;;;;;;5034689;28;20558;-35
2023/04/13 02:13:44;;;;;;;1.65;0.60;;;18.90;1.00;;;;;;5051672;28;20047;-35
2023/04/13 02:16:15;;;;;;;1.23;0.30;;;18.90;1.00;;;;;;5034224;28;20124;-35
2023/04/13 02:18:41;;;;;;;3.60;0.52;;;18.90;1.00;;;;;;5034462;28;20037;-35
2023/04/13 02:21:10;;;;;;;0.52;0.20;;;18.80;1.00;;;;;;5034333;28;20049;-35
2023/04/13 02:23:39;;;;;;;7.07;0.50;;;18.80;1.00;;;;;;5051355;28;20493;-35
2023/04/13 02:26:11;;;;;;;3.05;0.55;;;18.80;1.00;;;;;;5034187;28;20041;-35
2023/04/13 02:28:39;;;;;;;3.17;0.65;;;18.80;1.00;;;;;;5034363;28;20045;-35
2023/04/13 02:31:06;;;;;;;2.00;0.57;;;18.80;1.00;;;;;;5034061;28;20048;-35
2023/04/13 02:33:35;;;;;;;5.60;0.82;;;18.70;1.00;;;;;;5051312;28;20064;-35
2023/04/13 02:36:02;;;;;;;3.67;0.40;;;18.70;1.00;;;;;;5034061;28;20044;-35
2023/04/13 02:38:36;;;;;;;0.88;0.30;;;18.80;1.00;;;;;;5034163;28;20048;-35
2023/04/13 02:41:21;;;;;;;2.60;0.43;;;18.70;1.00;;;;;;5034116;28;20045;-35
2023/04/13 02:43:49;;;;;;;2.63;0.47;;;18.70;1.00;;;;;;5033318;28;20111;-35
2023/04/13 02:46:18;;;;;;;1.75;0.25;;;18.70;1.00;;;;;;5033912;28;20051;-35
2023/04/13 02:48:46;;;;;;;4.28;0.85;;;18.70;1.00;;;;;;5033965;28;20073;-35
2023/04/13 02:51:13;;;;;;;1.67;0.38;;;18.70;1.00;;;;;;5051862;28;20098;-35
2023/04/13 02:53:42;;;;;;;4.75;0.52;;;18.70;1.00;;;;;;5033182;28;20065;-35
2023/04/13 02:56:09;;;;;;;2.50;0.50;;;18.70;1.00;;;;;;5033872;28;20040;-35
2023/04/13 02:58:36;;;;;;;1.98;0.88;;;18.60;1.00;;;;;;5038007;28;20106;-35
2023/04/13 03:01:07;;;;;;;3.58;0.63;;;18.60;1.00;;;;;;5040579;28;20045;-35
2023/04/13 03:03:34;;;;;;;2.67;0.45;;;18.60;1.00;;;;;;5039751;28;20053;-35
2023/04/13 03:06:01;;;;;;;1.48;0.45;;;18.60;1.00;;;;;;5058282;28;20074;-36
2023/04/13 03:08:40;;;;;;;3.10;0.43;;;18.60;1.00;;;;;;5040497;28;20079;-35
2023/04/13 03:11:12;;;;;;;4.15;1.15;;;18.60;1.00;;;;;;5040612;28;20048;-35
2023/04/13 03:13:46;;;;;;;2.17;0.30;;;18.60;1.00;;;;;;5039534;28;20063;-35
2023/04/13 03:16:16;;;;;;;3.75;0.60;;;18.50;1.00;;;;;;5040253;28;20420;-35
2023/04/13 03:18:44;;;;;;;2.67;0.68;;;18.60;1.00;;;;;;5040344;28;20520;-35
2023/04/13 03:21:12;;;;;;;2.90;0.60;;;18.50;1.00;;;;;;5040405;28;20048;-35
2023/04/13 03:23:48;;;;;;;4.03;0.68;;;18.50;1.00;;;;;;5039346;28;20499;-36
2023/04/13 03:26:16;;;;;;;1.58;0.65;;;18.50;1.00;;;;;;5040182;28;20049;-35
2023/04/13 03:28:43;;;;;;;2.38;0.73;;;18.50;1.00;;;;;;5058241;28;20140;-35
2023/04/13 03:31:10;;;;;;;1.92;0.50;;;18.50;1.00;;;;;;5040257;28;20033;-33
2023/04/13 03:33:37;;;;;;;3.47;0.90;;;18.50;1.00;;;;;;5039443;28;20412;-34
2023/04/13 03:36:07;;;;;;;2.60;0.85;;;18.50;1.00;;;;;;5040183;28;20087;-34
2023/04/13 03:38:36;;;;;;;1.15;0.20;;;18.50;1.00;;;;;;5040128;28;20076;-34
2023/04/13 03:41:02;;;;;;;3.05;0.65;;;18.50;1.00;;;;;;5058144;28;20412;-34
2023/04/13 03:43:31;;;;;;;1.92;0.57;;;18.40;1.00;;;;;;5039324;28;20101;-34
2023/04/13 03:46:03;;;;;;;2.00;0.40;;;18.40;1.00;;;;;;5040164;28;20076;-34
2023/04/13 03:48:31;;;;;;;5.13;0.70;;;18.40;1.00;;;;;;5040003;28;20386;-34
2023/04/13 03:51:00;;;;;;;2.95;0.73;;;18.40;1.00;;;;;;5039953;28;20574;-34
2023/04/13 03:53:35;;;;;;;2.47;0.40;;;18.40;1.00;;;;;;5039297;28;20477;-34
2023/04/13 03:56:04;;;;;;;3.28;0.60;;;18.40;1.00;;;;;;5040028;28;20044;-34
2023/04/13 03:58:33;;;;;;;3.22;0.63;;;18.40;1.00;;;;;;5039985;28;20439;-35
2023/04/13 04:01:01;;;;;;;2.25;0.65;;;18.30;1.00;;;;;;5039990;28;20416;-34
2023/04/13 04:03:42;;;;;;;4.50;0.80;;;18.30;1.00;;;;;;5039234;28;20060;-34
2023/04/13 04:06:10;;;;;;;3.47;0.50;;;18.40;1.00;;;;;;5039800;28;20052;-34
2023/04/13 04:08:42;;;;;;;1.80;0.57;;;18.30;1.00;;;;;;5039363;28;20463;-34
2023/04/13 04:11:21;;;;;;;3.92;0.98;;;18.30;1.00;;;;;;5021419;28;20067;-34
2023/04/13 04:13:48;;;;;;;5.15;0.88;;;18.30;1.00;;;;;;5035871;28;20090;-34
2023/04/13 04:16:15;;;;;;;3.33;0.60;;;18.30;1.00;;;;;;5043997;22;20045;-33
2023/04/13 04:18:48;;;;;;;2.13;0.57;;;18.30;1.00;;;;;;5033333;28;20048;-33
2023/04/13 04:21:20;;;;;;;2.72;0.70;;;18.30;1.00;;;;;;5033256;28;20049;-34
2023/04/13 04:23:47;;;;;;;1.70;0.60;;;18.20;1.00;;;;;;5032374;28;20045;-35
2023/04/13 04:26:16;;;;;;;1.48;0.50;;;18.20;1.00;;;;;;5033042;28;20058;-32
2023/04/13 04:29:00;;;;;;;2.63;0.40;;;18.20;1.00;;;;;;5033258;28;20045;-35
2023/04/13 04:31:34;;;;;;;6.18;1.02;;;18.20;1.00;;;;;;5033196;28;20385;-35
2023/04/13 04:34:06;;;;;;;2.05;0.50;;;18.20;1.00;;;;;;5032319;28;20044;-33
2023/04/13 04:36:35;;;;;;;2.95;1.27;;;18.20;1.00;;;;;;5032835;28;20492;-34
2023/04/13 04:39:03;;;;;;;3.33;0.73;;;18.20;1.00;;;;;;5033015;28;20511;-32
2023/04/13 04:41:38;;;;;;;2.53;0.50;;;18.10;1.00;;;;;;5033199;28;20084;-35
2023/04/13 04:44:07;;;;;;;2.72;0.60;;;18.10;1.00;;;;;;5032286;28;20049;-36
2023/04/13 04:46:40;;;;;;;0.40;0.20;;;18.10;1.00;;;;;;5032853;28;20046;-34
2023/04/13 04:49:10;;;;;;;1.55;0.50;;;18.10;1.00;;;;;;5032736;28;20055;-33
2023/04/13 04:51:38;;;;;;;1.95;0.57;;;18.10;1.00;;;;;;5033876;28;20040;-32
2023/04/13 04:54:06;;;;;;;2.28;0.63;;;18.10;1.00;;;;;;5032073;28;20112;-34
2023/04/13 04:56:33;;;;;;;3.47;0.50;;;18.10;1.00;;;;;;5032559;28;20413;-34
2023/04/13 04:59:00;;;;;;;1.08;0.43;;;18.10;1.00;;;;;;5032540;28;20063;-33
2023/04/13 05:01:37;;;;;;;4.95;0.60;;;18.10;1.00;;;;;;5018628;28;20130;-36
2023/04/13 05:04:09;;;;;;;3.00;1.00;;;18.10;1.00;;;;;;5009592;28;20049;-35
2023/04/13 05:06:40;;;;;;;1.38;0.60;;;18.10;1.00;;;;;;5027893;28;20132;-33
2023/04/13 05:09:10;;;;;;;3.95;0.75;;;18.00;1.00;;;;;;5032399;28;20053;-34
2023/04/13 05:11:42;;;;;;;6.72;0.57;;;18.00;1.00;;;;;;5032245;28;20051;-32
2023/04/13 05:14:11;;;;;;;1.25;0.55;;;18.00;1.00;;;;;;5031369;28;20077;-36
2023/04/13 05:16:38;;;;;;;5.20;0.90;;;18.00;1.00;;;;;;5031918;28;20033;-37
2023/04/13 05:19:13;;;;;;;1.95;0.40;;;18.00;1.00;;;;;;5032113;28;20042;-35
2023/04/13 05:21:59;;;;;;;3.35;0.82;;;18.00;1.00;;;;;;5031646;28;20049;-37
2023/04/13 05:24:29;;;;;;;3.40;0.80;;;18.00;1.00;;;;;;5031255;28;20131;-36
2023/04/13 05:26:57;;;;;;;2.22;0.77;;;18.00;1.00;;;;;;5031797;28;20053;-35
2023/04/13 05:29:24;;;;;;;4.68;0.65;;;18.00;1.00;;;;;;5031968;28;20045;-34
2023/04/13 05:31:51;;;;;;;1.48;0.50;;;17.90;1.00;;;;;;5031679;28;20069;-37
2023/04/13 05:34:18;;;;;;;2.88;0.70;;;17.90;1.00;;;;;;5031116;28;20458;-34
2023/04/13 05:36:59;;;;;;;3.35;0.50;;;18.00;1.00;;;;;;5031825;28;20520;-34
2023/04/13 05:39:26;;;;;;;3.78;0.77;;;17.90;1.00;;;;;;5031833;28;20045;-34
2023/04/13 05:41:53;;;;;;;5.07;0.60;;;17.90;1.00;;;;;;5033000;28;20041;-33
2023/04/13 05:44:20;;;;;;;2.95;1.15;;;17.90;1.00;;;;;;5032264;28;20067;-33
2023/04/13 05:46:49;;;;;;;2.25;0.57;;;17.90;1.00;;;;;;5031402;28;20049;-35
2023/04/13 05:49:16;;;;;;;4.60;0.55;;;17.90;1.00;;;;;;5032762;28;20044;-33
2023/04/13 05:51:43;;;;;;;3.42;0.85;;;17.90;1.00;;;;;;5031286;28;20525;-35
2023/04/13 05:54:12;;;;;;;1.85;0.40;;;17.90;1.00;;;;;;5030600;28;20140;-32
2023/04/13 05:56:46;;;;;;;2.67;0.80;;;17.80;1.00;;;;;;5031365;28;20053;-38
2023/04/13 05:59:14;;;;;;;4.07;0.70;;;17.90;1.00;;;;;;5032654;28;20046;-33
2023/04/13 06:01:41;;;;;;;2.97;0.73;;;17.90;1.00;;;;;;5031211;28;20460;-33
2023/04/13 06:04:10;;;;;;;3.72;0.70;;;17.80;1.00;;;;;;5030383;28;20041;-36
2023/04/13 06:06:37;;;;;;;3.92;1.10;;;17.80;1.00;;;;;;5031022;28;20417;-35
2023/04/13 06:09:05;;;;;;;3.03;1.00;;;17.80;1.00;;;;;;5031206;28;20087;-35
2023/04/13 06:11:32;;;;;;;4.15;1.20;;;17.80;1.00;;;;;;5030924;28;20052;-32
2023/04/13 06:14:01;;;;;;;3.63;0.80;;;17.80;1.00;;;;;;5031654;28;20072;-39
2023/04/13 06:16:28;;;;;;;3.00;0.88;;;17.80;1.00;;;;;;5030612;28;20145;-38
2023/04/13 06:18:55;;;;;;;2.60;1.17;;;17.80;1.00;;;;;;5032301;28;20116;-38
2023/04/13 06:21:26;;;;;;;2.67;0.60;;;17.80;1.00;;;;;;5030797;28;20052;-33
2023/04/13 06:23:53;;;;;;;1.70;0.60;;;17.80;1.00;;;;;;5030121;28;20136;-36
2023/04/13 06:26:36;;;;;;;4.93;0.80;;;17.90;1.00;;;;;;5030580;28;20139;-32
2023/04/13 06:29:03;;;;;;;2.00;0.57;;;17.80;1.00;;;;;;5030782;28;20052;-37
2023/04/13 06:31:40;;;;;;;3.42;1.27;;;17.80;1.00;;;;;;5030658;28;20064;-36
2023/04/13 06:34:12;;;;;;;2.85;1.35;;;17.80;1.00;;;;;;5029416;28;20045;-36
2023/04/13 06:36:39;;;;;;;4.82;1.00;;;17.80;1.00;;;;;;5030618;28;20100;-35
2023/04/13 06:39:08;;;;;;;2.35;1.38;;;17.80;1.00;;;;;;5031988;28;20485;-32
2023/04/13 06:41:36;;;;;;;3.10;0.50;;;17.80;1.00;;;;;;5030560;28;20041;-35
2023/04/13 06:44:13;;;;;;;4.40;0.60;;;17.80;1.00;;;;;;5029874;28;20057;-34
2023/04/13 06:46:55;;;;;;;4.00;0.60;;;17.80;1.00;;;;;;5030556;28;20072;-35
2023/04/13 06:49:24;;;;;;;4.20;1.02;;;17.80;1.00;;;;;;5030437;28;20046;-32
2023/04/13 06:51:51;;;;;;;3.97;1.20;;;17.80;1.00;;;;;;5030326;28;20128;-38
2023/04/13 06:54:18;;;;;;;2.25;0.60;;;17.80;1.00;;;;;;5029796;28;20045;-33
2023/04/13 06:56:49;;;;;;;2.10;0.55;;;17.80;1.00;;;;;;5030279;28;20099;-33
2023/04/13 06:59:15;;;;;;;4.32;0.77;;;17.80;1.00;;;;;;5030458;28;20050;-31
2023/04/13 07:01:42;;;;;;;4.75;0.70;;;17.70;1.00;;;;;;5031761;28;20045;-38
2023/04/13 07:04:10;;;;;;;2.30;0.50;;;17.70;1.00;;;;;;5029568;28;20054;-32
2023/04/13 07:06:40;;;;;;;3.55;0.80;;;17.70;1.00;;;;;;5029769;28;20217;-35
2023/04/13 07:09:07;;;;;;;3.58;1.15;;;17.70;1.00;;;;;;5030333;28;20460;-36
2023/04/13 07:11:34;;;;;;;2.05;0.73;;;17.70;1.00;;;;;;5013655;28;20033;-36
2023/04/13 07:14:02;;;;;;;3.60;0.80;;;17.70;1.00;;;;;;5029335;28;20084;-32
2023/04/13 07:16:29;;;;;;;3.70;1.42;;;17.70;1.00;;;;;;5029966;28;20413;-36
2023/04/13 07:18:59;;;;;;;1.45;0.63;;;17.70;1.00;;;;;;5029928;28;20041;-34
2023/04/13 07:21:26;;;;;;;2.83;0.40;;;17.70;1.00;;;;;;5030191;28;20058;-35
2023/04/13 07:24:04;;;;;;;2.60;0.70;;;17.70;1.00;;;;;;5029560;28;20045;-34
2023/04/13 07:26:33;;;;;;;4.18;1.05;;;17.70;1.00;;;;;;5029976;28;20053;-34
2023/04/13 07:29:00;;;;;;;7.35;0.82;;;17.70;1.00;;;;;;5030303;28;20448;-37
2023/04/13 07:31:33;;;;;;;4.65;0.50;;;17.60;1.00;;;;;;5029874;28;20048;-35
2023/04/13 07:34:01;;;;;;;1.08;0.40;;;17.60;1.00;;;;;;5029464;28;20045;-36
2023/04/13 07:36:33;;;;;;;6.07;0.70;;;17.60;1.00;;;;;;5030039;28;20051;-37
2023/04/13 07:39:07;;;;;;;8.88;0.95;;;17.60;1.00;;;;;;5030112;28;20045;-36
2023/04/13 07:41:36;;;;;;;3.03;0.47;;;17.60;1.00;;;;;;5029949;28;20069;-33
2023/04/13 07:44:06;;;;;;;7.22;0.68;;;17.60;1.00;;;;;;5030067;28;20569;-34
2023/04/13 07:46:33;;;;;;;3.42;0.50;;;17.60;1.00;;;;;;5033550;28;20073;-35
2023/04/13 07:49:00;;;;;;;4.78;1.15;;;17.60;1.00;;;;;;5033853;28;20509;-35
2023/04/13 07:51:33;;;;;;;4.43;0.82;;;17.60;1.00;;;;;;5033546;28;20067;-32
2023/04/13 07:54:01;;;;;;;4.07;0.50;;;17.60;1.00;;;;;;5016713;28;20464;-33
2023/04/13 07:56:30;;;;;;;5.47;1.13;;;17.60;1.00;;;;;;5033269;28;20041;-35
2023/04/13 07:58:59;;;;;;;2.25;0.45;;;17.60;1.00;;;;;;5017547;28;20509;-37
2023/04/13 08:01:26;;;;;;;3.72;1.02;;;17.60;1.00;;;;;;5033330;28;20494;-38
2023/04/13 08:03:55;;;;;;;2.03;0.25;;;17.60;1.00;;;;;;5032654;28;20045;-36
2023/04/13 08:06:25;;;;;;;2.88;0.35;;;17.60;1.00;;;;;;5033314;28;20103;-34
2023/04/13 08:08:53;;;;;;;3.28;0.50;;;17.50;1.00;;;;;;5033350;28;20049;-37
2023/04/13 08:11:20;;;;;;;1.88;0.30;;;17.50;1.00;;;;;;5033108;28;20045;-32
2023/04/13 08:13:53;;;;;;;7.38;0.63;;;17.50;1.00;;;;;;5032579;28;20034;-35
2023/04/13 08:16:20;;;;;;;4.93;0.80;;;17.50;1.00;;;;;;5032740;28;20046;-33
2023/04/13 08:18:47;;;;;;;2.90;0.40;;;17.50;1.00;;;;;;5032108;28;20041;-37
2023/04/13 08:21:14;;;;;;;4.70;0.52;;;17.50;1.00;;;;;;5031942;28;20500;-33
2023/04/13 08:23:44;;;;;;;3.60;0.45;;;17.50;1.00;;;;;;5031042;28;20444;-32
2023/04/13 08:26:18;;;;;;;2.63;0.25;;;17.50;1.00;;;;;;5031905;28;20073;-34
2023/04/13 08:28:47;;;;;;;4.43;0.82;;;17.50;1.00;;;;;;5032015;28;20037;-32
2023/04/13 08:31:14;;;;;;;4.30;0.88;;;17.50;1.00;;;;;;5031730;28;20049;-32
2023/04/13 08:33:47;;;;;;;3.35;0.60;;;17.40;1.00;;;;;;5031064;28;20505;-34
2023/04/13 08:36:16;;;;;;;2.40;0.60;;;17.50;1.00;;;;;;5031513;28;20042;-34
2023/04/13 08:38:46;;;;;;;5.28;0.75;;;17.40;1.00;;;;;;5031829;28;20041;-39
2023/04/13 08:41:16;;;;;;;3.80;1.08;;;17.40;1.00;;;;;;5033046;28;20568;-32
2023/04/13 08:43:49;;;;;;;4.50;0.57;;;17.40;1.00;;;;;;5030995;28;20038;-32
2023/04/13 08:46:19;;;;;;;2.67;0.55;;;17.40;1.00;;;;;;5031376;28;20038;-39
2023/04/13 08:48:52;;;;;;;2.35;0.60;;;17.40;1.00;;;;;;5031703;28;20515;-39
2023/04/13 08:51:28;;;;;;;4.72;0.70;;;17.40;1.00;;;;;;5031368;28;20045;-35
2023/04/13 08:53:55;;;;;;;5.00;1.02;;;17.40;1.00;;;;;;5030922;28;20128;-33
2023/04/13 08:56:27;;;;;;;5.55;0.88;;;17.40;1.00;;;;;;5028041;28;20512;-39
2023/04/13 08:59:10;;;;;;;8.10;1.05;;;17.40;1.00;;;;;;5027858;28;20095;-34
2023/04/13 09:01:38;;;;;;;5.68;1.33;;;17.40;1.00;;;;;;5032293;28;20063;-37
2023/04/13 09:04:10;;;;;;;5.15;1.27;;;17.40;1.00;;;;;;5030721;28;20132;-35
2023/04/13 09:06:41;;;;;;;5.85;0.85;;;17.40;1.00;;;;;;5030999;28;20057;-36
2023/04/13 09:09:15;;;;;;;2.88;0.82;;;17.40;1.00;;;;;;5031509;28;20049;-32
2023/04/13 09:11:44;;;;;;;5.13;1.05;;;17.40;1.00;;;;;;5031001;28;20464;-36
2023/04/13 09:14:11;;;;;;;3.28;0.93;;;17.40;1.00;;;;;;5030529;28;20107;-32
2023/04/13 09:16:42;;;;;;;2.87;0.87;;;17.40;1.00;;;;;;4994070;28;1074396;-33
2023/04/13 09:19:31;;;;;;;6.72;1.15;;;17.40;1.00;;;;;;5032281;28;20297;-34
2023/04/13 09:22:12;;;;;;;3.30;0.80;;;17.40;1.00;;;;;;5031882;28;20108;-34
2023/04/13 09:24:40;;;;;;;6.07;0.90;;;17.30;1.00;;;;;;5033056;28;20284;-35
2023/04/13 09:27:19;;;;;;;4.40;1.38;;;17.30;1.00;;;;;;5033073;28;20068;-36
2023/04/13 09:29:51;;;;;;;3.65;0.57;;;17.30;1.00;;;;;;5033232;28;20120;-34
2023/04/13 09:32:22;;;;;;;4.32;1.10;;;17.40;1.00;;;;;;5032384;28;20412;-35
2023/04/13 09:35:03;;;;;;;5.60;0.80;;;17.30;1.00;;;;;;5032725;28;20047;-36
2023/04/13 09:37:31;;;;;;;2.35;0.80;;;17.30;1.00;;;;;;5033239;28;20072;-36
2023/04/13 09:40:12;;;;;;;6.68;1.13;;;17.30;1.00;;;;;;5033201;28;20556;-33
2023/04/13 09:42:40;;;;;;;4.05;1.08;;;17.30;1.00;;;;;;5032315;28;20045;-35
2023/04/13 09:45:08;;;;;;;3.45;1.02;;;17.30;1.00;;;;;;5032934;28;20064;-36
2023/04/13 09:47:39;;;;;;;5.90;1.38;;;17.30;1.00;;;;;;5032445;28;20041;-34
2023/04/13 09:50:27;;;;;;;7.15;1.40;;;17.30;1.00;;;;;;5032824;28;20407;-36
2023/04/13 09:52:58;;;;;;;8.18;1.33;;;17.30;1.00;;;;;;5031859;28;20045;-35
2023/04/13 09:55:26;;;;;;;3.22;1.30;;;17.30;1.00;;;;;;5032430;28;20096;-34
2023/04/13 09:57:53;;;;;;;4.35;0.82;;;17.30;1.00;;;;;;5032524;28;20037;-32
2023/04/13 10:00:20;;;;;;;3.42;0.75;;;17.30;1.00;;;;;;5027853;28;20401;-36
2023/04/13 10:02:49;;;;;;;5.57;1.10;;;17.30;1.00;;;;;;5031654;28;20084;-36
2023/04/13 10:05:18;;;;;;;4.28;1.10;;;17.30;1.00;;;;;;5032456;28;20041;-38
2023/04/13 10:07:46;;;;;;;8.05;1.23;;;17.30;1.00;;;;;;5031206;28;20045;-33
2023/04/13 10:10:13;;;;;;;4.63;1.50;;;17.30;1.00;;;;;;5032359;28;20045;-32
2023/04/13 10:12:46;;;;;;;4.03;1.15;;;17.30;1.00;;;;;;5031140;28;20477;-35
2023/04/13 10:15:38;;;;;;;4.72;1.98;;;17.30;1.00;;;;;;5029646;28;20419;-33
2023/04/13 10:18:17;;;;;;;7.25;1.25;;;17.30;1.00;;;;;;5031966;28;20068;-31
2023/04/13 10:20:46;;;;;;;11.57;1.52;;;17.30;1.00;;;;;;5032307;28;20037;-35
2023/04/13 10:23:13;;;;;;;6.00;1.70;;;17.30;1.00;;;;;;5031580;28;20041;-36
2023/04/13 10:25:53;;;;;;;6.10;1.38;;;17.40;1.00;;;;;;5032047;28;20107;-32
2023/04/13 10:28:23;;;;;;;5.95;1.20;;;17.40;1.00;;;;;;5032078;28;20049;-32
2023/04/13 10:30:55;;;;;;;5.03;1.75;;;17.60;1.00;;;;;;5046619;22;20132;-35
2023/04/13 10:33:21;;;;;;;5.80;1.80;;;17.70;1.00;;;;;;5020929;28;20107;-36
2023/04/13 10:36:00;;;;;;;6.25;1.75;;;17.80;1.00;;;;;;5031802;28;20061;-35
2023/04/13 10:38:26;;;;;;;5.03;1.25;;;17.80;1.00;;;;;;5014532;28;20405;-36
2023/04/13 10:40:53;;;;;;;6.38;1.33;;;17.90;1.00;;;;;;5013959;28;20140;-36
2023/04/13 10:43:30;;;;;;;7.78;1.15;;;18.00;1.00;;;;;;5030925;28;20183;-36
2023/04/13 10:46:15;;;;;;;7.18;1.55;;;18.10;1.00;;;;;;5031845;28;20116;-36
2023/04/13 10:48:42;;;;;;;9.00;1.50;;;18.20;1.00;;;;;;4992237;28;20042;-36
2023/04/13 10:51:09;;;;;;;8.65;1.83;;;18.20;1.00;;;;;;4992312;28;20395;-35
2023/04/13 10:53:36;;;;;;;4.55;2.00;;;18.20;1.00;;;;;;5000333;28;20056;-36
2023/04/13 10:56:13;;;;;;;6.57;1.67;;;18.30;1.00;;;;;;5011091;28;20044;-36
2023/04/13 10:58:40;;;;;;;5.88;1.17;;;18.30;1.00;;;;;;5012021;28;20104;-36
2023/04/13 11:01:09;;;;;;;9.98;2.28;;;18.30;1.00;;;;;;5011901;28;20042;-36
2023/04/13 11:03:36;;;;;;;6.22;1.90;;;18.30;1.00;;;;;;5009711;28;20542;-36
2023/04/13 11:06:05;;;;;;;4.88;1.25;;;18.30;1.00;;;;;;4992091;28;20047;-36
2023/04/13 11:08:33;;;;;;;6.70;1.90;;;18.40;1.00;;;;;;4991970;28;20557;-36
2023/04/13 11:11:00;;;;;;;6.40;1.80;;;18.40;1.00;;;;;;4992174;28;20649;-36
2023/04/13 11:13:28;;;;;;;7.25;1.98;;;18.40;1.00;;;;;;5001257;28;20046;-36
2023/04/13 11:16:03;;;;;;;5.85;1.15;;;18.50;1.00;;;;;;5011872;28;20425;-36
2023/04/13 11:18:30;;;;;;;6.13;1.40;;;18.50;1.00;;;;;;5012211;28;20128;-35
2023/04/13 11:20:57;;;;;;;6.40;1.55;;;18.50;1.00;;;;;;5014910;28;20049;-36
2023/04/13 11:23:25;;;;;;;6.22;1.48;;;18.50;1.00;;;;;;5014498;28;20126;-36
2023/04/13 11:26:00;;;;;;;5.28;1.17;;;18.60;1.00;;;;;;5015734;28;20399;-36
2023/04/13 11:28:39;;;;;;;5.50;1.65;;;18.60;1.00;;;;;;5015601;28;20049;-36
2023/04/13 11:31:06;;;;;;;9.57;1.90;;;18.60;1.00;;;;;;5015423;28;20048;-36
2023/04/13 11:33:34;;;;;;;4.90;1.70;;;18.60;1.00;;;;;;5010879;28;20060;-35
2023/04/13 11:36:05;;;;;;;9.40;1.55;;;18.70;1.00;;;;;;5015750;28;20625;-36
2023/04/13 11:38:31;;;;;;;7.82;1.35;;;18.70;1.00;;;;;;5015565;28;20112;-36
2023/04/13 11:41:03;;;;;;;6.20;1.15;;;18.70;1.00;;;;;;5015239;28;20121;-36
2023/04/13 11:43:44;;;;;;;6.65;1.17;;;18.70;1.00;;;;;;5014553;28;20042;-36
2023/04/13 11:46:14;;;;;;;7.10;1.98;;;18.70;1.00;;;;;;5015429;28;20042;-36
2023/04/13 11:48:42;;;;;;;4.35;1.42;;;18.80;1.00;;;;;;5015243;28;20042;-36
2023/04/13 11:51:10;;;;;;;4.55;1.33;;;18.80;1.00;;;;;;5014630;28;20078;-36
2023/04/13 11:53:38;;;;;;;4.10;1.33;;;18.80;1.00;;;;;;5014369;28;20042;-36
2023/04/13 11:56:06;;;;;;;7.38;1.63;;;18.80;1.00;;;;;;5015607;28;20042;-36
2023/04/13 11:58:33;;;;;;;3.38;1.13;;;18.80;1.00;;;;;;5014847;28;20069;-36
2023/04/13 12:01:08;;;;;;;8.43;1.70;;;18.90;1.00;;;;;;5015162;28;20052;-36
2023/04/13 12:03:42;;;;;;;4.68;0.98;;;18.90;1.00;;;;;;5014370;28;20061;-36
2023/04/13 12:06:31;;;;;;;8.32;1.30;;;18.90;1.00;;;;;;5015036;28;20462;-36
2023/04/13 12:08:59;;;;;;;5.10;1.20;;;18.90;1.00;;;;;;5014676;28;20049;-36
2023/04/13 12:11:37;;;;;;;4.03;1.20;;;18.90;1.00;;;;;;5014755;28;20065;-36
2023/04/13 12:14:23;;;;;;;5.07;1.48;;;18.90;1.00;;;;;;5014156;28;20033;-36
2023/04/13 12:17:11;;;;;;;7.82;1.65;;;19.00;1.00;;;;;;5013069;28;20042;-36
2023/04/13 12:19:44;;;;;;;8.27;1.58;;;19.00;1.00;;;;;;5012963;28;20126;-34
2023/04/13 12:22:12;;;;;;;7.20;1.42;;;19.00;1.00;;;;;;5013422;28;20046;-36
2023/04/13 12:24:40;;;;;;;12.30;2.70;;;19.00;1.00;;;;;;5012219;28;20485;-36
2023/04/13 12:27:08;;;;;;;7.22;1.50;;;19.00;1.00;;;;;;5002930;28;20050;-36
2023/04/13 12:29:45;;;;;;;7.28;1.88;;;19.00;1.00;;;;;;4993423;28;20046;-36
2023/04/13 12:32:13;;;;;;;3.70;1.25;;;19.10;1.00;;;;;;4992672;28;20042;-36
2023/04/13 12:34:41;;;;;;;4.38;1.50;;;19.10;1.00;;;;;;4993596;28;20058;-36
2023/04/13 12:37:10;;;;;;;5.88;1.58;;;19.10;1.00;;;;;;4993727;28;20533;-36
2023/04/13 12:39:37;;;;;;;4.90;0.95;;;19.10;1.00;;;;;;4995199;28;20073;-34
2023/04/13 12:42:03;;;;;;;9.90;2.10;;;19.10;1.00;;;;;;5013168;28;20038;-36
2023/04/13 12:44:30;;;;;;;3.25;1.70;;;19.10;1.00;;;;;;5012597;28;20552;-36
2023/04/13 12:47:00;;;;;;;6.20;1.75;;;19.20;1.00;;;;;;5013123;28;20041;-36
2023/04/13 12:49:27;;;;;;;4.55;1.52;;;19.20;1.00;;;;;;5013253;28;20042;-36
2023/04/13 12:51:54;;;;;;;6.88;1.67;;;19.10;1.00;;;;;;5012952;28;20096;-36
2023/04/13 12:54:21;;;;;;;7.20;1.35;;;19.20;1.00;;;;;;5002299;28;20089;-36
2023/04/13 12:56:47;;;;;;;4.50;1.20;;;19.20;1.00;;;;;;5012722;28;20541;-36
2023/04/13 12:59:15;;;;;;;4.63;1.50;;;19.20;1.00;;;;;;5013102;28;20078;-36
2023/04/13 13:01:42;;;;;;;4.55;1.00;;;19.20;1.00;;;;;;5012816;28;20084;-36
2023/04/13 13:04:09;;;;;;;5.47;1.05;;;19.20;1.00;;;;;;5012537;28;20144;-36
2023/04/13 13:06:36;;;;;;;5.93;1.63;;;19.20;1.00;;;;;;5012832;28;20038;-37
2023/04/13 13:09:02;;;;;;;7.93;1.50;;;19.20;1.00;;;;;;5012802;28;20065;-36
2023/04/13 13:11:30;;;;;;;5.82;1.40;;;19.30;1.00;;;;;;5012667;28;20520;-36
2023/04/13 13:13:56;;;;;;;6.40;1.20;;;19.30;1.00;;;;;;5011951;28;20038;-36
2023/04/13 13:16:23;;;;;;;9.05;1.92;;;19.30;1.00;;;;;;5012552;28;20049;-36